createdAt,value
2023-05-15T00:00:57.832Z,81.70
2023-05-15T00:03:31.357Z,81.52
2023-05-15T00:06:04.594Z,81.50
2023-05-15T00:08:37.461Z,81.27
2023-05-15T00:11:11.882Z,81.26
2023-05-15T00:13:45.026Z,81.20
2023-05-15T00:16:18.274Z,80.95
2023-05-15T00:18:51.524Z,81.33
2023-05-15T00:21:24.237Z,81.20
2023-05-15T00:23:58.482Z,81.25
2023-05-15T00:26:32.742Z,81.25
2023-05-15T00:29:05.537Z,81.65
2023-05-15T00:31:38.637Z,81.62
2023-05-15T00:34:11.728Z,81.66
2023-05-15T00:36:45.123Z,81.62
2023-05-15T00:39:18.332Z,81.72
2023-05-15T00:41:53.615Z,81.63
2023-05-15T00:44:27.891Z,81.84
2023-05-15T00:47:00.799Z,81.74
2023-05-15T00:49:36.193Z,81.82
2023-05-15T00:52:09.076Z,81.82
2023-05-15T00:54:42.331Z,81.84
2023-05-15T00:57:17.599Z,81.83
2023-05-15T00:59:51.070Z,81.89
2023-05-15T01:02:23.924Z,81.89
2023-05-15T01:04:56.869Z,81.85
2023-05-15T01:07:31.855Z,81.81
2023-05-15T01:10:04.840Z,81.72
2023-05-15T01:12:41.480Z,81.64
2023-05-15T01:15:14.439Z,81.79
2023-05-15T01:17:47.646Z,81.85
2023-05-15T01:20:21.717Z,81.79
2023-05-15T01:23:06.263Z,81.60
2023-05-15T01:26:03.068Z,81.90
2023-05-15T01:28:40.228Z,81.80
2023-05-15T01:31:17.695Z,81.86
2023-05-15T01:33:55.690Z,81.60
2023-05-15T01:36:34.551Z,81.57
2023-05-15T01:39:08.749Z,81.52
2023-05-15T01:41:44.116Z,81.49
2023-05-15T01:44:20.381Z,81.43
2023-05-15T01:46:56.986Z,81.57
2023-05-15T01:49:32.193Z,81.33
2023-05-15T01:52:08.268Z,81.23
2023-05-15T01:54:41.719Z,81.17
2023-05-15T01:57:16.641Z,81.23
2023-05-15T01:59:52.055Z,80.96
2023-05-15T02:02:25.293Z,80.89
2023-05-15T02:04:59.375Z,81.05
2023-05-15T02:07:33.124Z,80.62
2023-05-15T02:10:07.191Z,80.92
2023-05-15T02:12:41.099Z,80.79
2023-05-15T02:15:15.375Z,80.55
2023-05-15T02:17:48.834Z,80.60
2023-05-15T02:20:22.213Z,80.71
2023-05-15T02:22:55.644Z,80.67
2023-05-15T02:25:34.312Z,80.30
2023-05-15T02:28:08.427Z,80.68
2023-05-15T02:30:47.736Z,80.46
2023-05-15T02:33:23.320Z,80.71
2023-05-15T02:35:58.873Z,80.59
2023-05-15T02:38:34.503Z,80.67
2023-05-15T02:41:08.038Z,80.62
2023-05-15T02:43:41.563Z,80.63
2023-05-15T02:46:16.346Z,80.68
2023-05-15T02:48:50.076Z,80.57
2023-05-15T02:51:23.317Z,80.28
2023-05-15T02:53:56.308Z,79.90
2023-05-15T02:56:29.198Z,79.77
2023-05-15T02:59:02.663Z,79.56
2023-05-15T03:01:37.496Z,79.43
2023-05-15T03:04:11.003Z,78.92
2023-05-15T03:06:44.257Z,78.99
2023-05-15T03:09:18.459Z,78.80
2023-05-15T03:11:52.257Z,79.07
2023-05-15T03:14:25.347Z,78.97
2023-05-15T03:16:59.929Z,78.92
2023-05-15T03:19:32.988Z,78.55
2023-05-15T03:22:06.314Z,79.06
2023-05-15T03:24:39.160Z,78.86
2023-05-15T03:27:12.120Z,78.46
2023-05-15T03:29:45.244Z,78.92
2023-05-15T03:32:20.232Z,78.72
2023-05-15T03:34:53.131Z,78.94
2023-05-15T03:37:26.536Z,79.22
2023-05-15T03:39:59.556Z,78.67
2023-05-15T03:42:32.673Z,78.72
2023-05-15T03:45:06.115Z,79.23
2023-05-15T03:47:40.763Z,79.60
2023-05-15T03:50:14.397Z,80.24
2023-05-15T03:52:47.575Z,80.95
2023-05-15T03:55:20.828Z,80.69
2023-05-15T03:57:55.389Z,81.15
2023-05-15T04:00:28.225Z,81.82
2023-05-15T04:03:02.812Z,81.76
2023-05-15T04:05:36.385Z,82.05
2023-05-15T04:08:11.409Z,82.20
2023-05-15T04:10:44.634Z,82.10
2023-05-15T04:13:17.616Z,82.01
2023-05-15T04:15:51.054Z,82.19
2023-05-15T04:18:25.552Z,81.87
2023-05-15T04:20:58.378Z,81.56
2023-05-15T04:23:31.481Z,82.08
2023-05-15T04:26:04.457Z,81.94
2023-05-15T04:28:37.556Z,81.71
2023-05-15T04:31:10.654Z,81.65
2023-05-15T04:33:45.308Z,81.68
2023-05-15T04:36:18.480Z,82.02
2023-05-15T04:38:51.811Z,82.03
2023-05-15T04:41:24.765Z,81.95
2023-05-15T04:43:58.215Z,82.27
2023-05-15T04:46:35.137Z,81.93
2023-05-15T04:49:09.794Z,82.08
2023-05-15T04:51:43.382Z,82.15
2023-05-15T04:54:16.358Z,82.51
2023-05-15T04:56:49.370Z,82.81
2023-05-15T04:59:22.562Z,82.87
2023-05-15T05:01:55.956Z,83.13
2023-05-15T05:04:30.818Z,83.39
2023-05-15T05:07:05.917Z,83.68
2023-05-15T05:09:39.609Z,83.99
2023-05-15T05:12:13.155Z,83.90
2023-05-15T05:14:46.092Z,84.21
2023-05-15T05:17:19.165Z,84.57
2023-05-15T05:19:53.807Z,85.08
2023-05-15T05:22:26.831Z,85.63
2023-05-15T05:24:59.694Z,86.33
2023-05-15T05:27:32.603Z,86.81
2023-05-15T05:30:06.076Z,87.19
2023-05-15T05:32:39.648Z,87.36
2023-05-15T05:35:14.062Z,86.95
2023-05-15T05:37:47.482Z,86.52
2023-05-15T05:40:20.246Z,85.98
2023-05-15T05:42:53.062Z,85.97
2023-05-15T05:45:26.133Z,85.02
2023-05-15T05:48:00.222Z,84.43
2023-05-15T05:50:34.754Z,84.03
2023-05-15T05:53:07.633Z,83.27
2023-05-15T05:55:40.398Z,83.02
2023-05-15T05:58:18.362Z,82.66
2023-05-15T06:00:57.778Z,83.02
2023-05-15T06:03:31.756Z,82.58
2023-05-15T06:06:07.658Z,82.33
2023-05-15T06:08:40.684Z,82.33
2023-05-15T06:11:13.818Z,81.96
2023-05-15T06:13:46.928Z,81.66
2023-05-15T06:16:19.840Z,81.60
2023-05-15T06:18:53.218Z,81.54
2023-05-15T06:21:27.570Z,80.97
2023-05-15T06:24:00.784Z,80.82
2023-05-15T06:26:33.702Z,81.10
2023-05-15T06:29:06.873Z,80.85
2023-05-15T06:31:40.336Z,80.68
2023-05-15T06:34:13.213Z,80.92
2023-05-15T06:36:47.799Z,80.87
2023-05-15T06:39:20.920Z,80.58
2023-05-15T06:41:58.437Z,80.63
2023-05-15T06:44:31.754Z,80.70
2023-05-15T06:47:05.501Z,80.94
2023-05-15T06:49:38.501Z,80.89
2023-05-15T06:52:13.574Z,80.74
2023-05-15T06:54:47.137Z,80.87
2023-05-15T06:57:21.133Z,81.01
2023-05-15T06:59:54.312Z,81.14
2023-05-15T07:02:27.616Z,81.34
2023-05-15T07:05:00.638Z,81.11
2023-05-15T07:07:35.458Z,80.95
2023-05-15T07:10:09.374Z,80.88
2023-05-15T07:12:42.542Z,81.04
2023-05-15T07:15:18.097Z,81.07
2023-05-15T07:17:51.704Z,80.63
2023-05-15T07:20:27.216Z,80.46
2023-05-15T07:23:04.212Z,80.39
2023-05-15T07:25:37.566Z,80.68
2023-05-15T07:28:11.380Z,80.82
2023-05-15T07:30:44.823Z,81.42
2023-05-15T07:33:17.980Z,81.57
2023-05-15T07:35:52.298Z,81.91
2023-05-15T07:38:26.895Z,81.93
2023-05-15T07:41:00.381Z,82.26
2023-05-15T07:43:33.581Z,82.43
2023-05-15T07:46:06.873Z,82.63
2023-05-15T07:48:40.238Z,83.00
2023-05-15T07:51:13.997Z,83.17
2023-05-15T07:53:48.836Z,83.61
2023-05-15T07:56:21.854Z,84.18
2023-05-15T07:58:55.060Z,84.97
2023-05-15T08:01:29.041Z,85.45
2023-05-15T08:04:03.205Z,85.92
2023-05-15T08:06:37.543Z,85.82
2023-05-15T08:09:13.237Z,86.21
2023-05-15T08:11:46.365Z,85.74
2023-05-15T08:14:19.637Z,85.64
2023-05-15T08:16:52.963Z,85.06
2023-05-15T08:19:25.874Z,85.11
2023-05-15T08:21:58.857Z,84.85
2023-05-15T08:24:33.595Z,84.30
2023-05-15T08:27:06.789Z,84.35
2023-05-15T08:29:40.225Z,84.54
2023-05-15T08:32:13.219Z,84.39
2023-05-15T08:34:46.205Z,84.59
2023-05-15T08:37:19.009Z,84.80
2023-05-15T08:39:54.027Z,84.43
2023-05-15T08:42:34.191Z,84.41
2023-05-15T08:45:08.267Z,84.46
2023-05-15T08:47:42.340Z,85.04
2023-05-15T08:50:16.865Z,85.51
2023-05-15T08:52:51.641Z,85.11
2023-05-15T08:55:27.140Z,85.30
2023-05-15T08:58:00.624Z,85.08
2023-05-15T09:00:35.095Z,85.41
2023-05-15T09:03:08.390Z,85.17
2023-05-15T09:05:41.889Z,84.83
2023-05-15T09:08:16.871Z,84.68
2023-05-15T09:10:53.595Z,84.12
2023-05-15T09:13:26.816Z,84.03
2023-05-15T09:15:59.505Z,84.32
2023-05-15T09:18:34.334Z,84.27
2023-05-15T09:21:26.844Z,85.11
2023-05-15T09:24:17.258Z,85.99
2023-05-15T09:27:03.184Z,86.73
2023-05-15T09:29:37.497Z,87.07
2023-05-15T09:32:11.470Z,86.92
2023-05-15T09:34:45.757Z,86.70
2023-05-15T09:37:29.657Z,86.26
2023-05-15T09:40:09.663Z,85.83
2023-05-15T09:42:43.989Z,85.41
2023-05-15T09:45:19.298Z,85.11
2023-05-15T09:47:52.275Z,84.99
2023-05-15T09:50:26.133Z,84.77
2023-05-15T09:53:00.818Z,84.65
2023-05-15T09:55:35.332Z,84.39
2023-05-15T09:58:11.287Z,84.49
2023-05-15T10:00:48.271Z,84.79
2023-05-15T10:03:22.918Z,85.18
2023-05-15T10:06:00.587Z,85.49
2023-05-15T10:08:34.515Z,85.40
2023-05-15T10:11:07.622Z,84.90
2023-05-15T10:13:41.700Z,84.13
2023-05-15T10:16:15.556Z,83.18
2023-05-15T10:18:49.131Z,83.10
2023-05-15T10:21:23.871Z,83.34
2023-05-15T10:23:58.275Z,83.68
2023-05-15T10:26:33.955Z,83.50
2023-05-15T10:29:09.731Z,83.84
2023-05-15T10:31:43.355Z,84.38
2023-05-15T10:34:16.456Z,85.16
2023-05-15T10:36:51.033Z,85.66
2023-05-15T10:39:24.498Z,86.41
2023-05-15T10:41:57.921Z,87.21
2023-05-15T10:44:32.144Z,87.75
2023-05-15T10:47:06.264Z,87.64
2023-05-15T10:49:39.381Z,87.29
2023-05-15T10:52:12.142Z,86.92
2023-05-15T10:54:45.085Z,86.98
2023-05-15T10:57:17.903Z,86.93
2023-05-15T10:59:52.667Z,86.68
2023-05-15T11:02:26.729Z,86.17
2023-05-15T11:05:00.232Z,85.75
2023-05-15T11:07:33.095Z,85.59
2023-05-15T11:10:29.306Z,85.08
2023-05-15T11:13:03.058Z,84.98
2023-05-15T11:15:44.786Z,85.04
2023-05-15T11:18:17.684Z,85.73
2023-05-15T11:21:11.321Z,86.19
2023-05-15T11:23:44.073Z,86.51
2023-05-15T11:26:16.805Z,86.21
2023-05-15T11:28:49.723Z,85.59
2023-05-15T11:31:30.780Z,84.88
2023-05-15T11:34:06.638Z,84.57
2023-05-15T11:36:39.972Z,84.39
2023-05-15T11:39:12.981Z,84.92
2023-05-15T11:41:45.751Z,85.31
2023-05-15T11:44:21.056Z,85.33
2023-05-15T11:46:56.380Z,85.15
2023-05-15T11:49:29.719Z,83.59
2023-05-15T11:52:02.473Z,83.16
2023-05-15T11:54:35.221Z,82.96
2023-05-15T11:57:08.833Z,82.46
2023-05-15T11:59:41.625Z,76.98
2023-05-15T12:02:17.655Z,80.30
2023-05-15T12:04:51.295Z,80.66
2023-05-15T12:07:24.143Z,80.28
2023-05-15T12:09:56.949Z,80.48
2023-05-15T12:12:29.686Z,80.61
2023-05-15T12:15:03.094Z,79.81
2023-05-15T12:17:37.449Z,78.95
2023-05-15T12:20:12.439Z,78.23
2023-05-15T12:22:45.512Z,79.65
2023-05-15T12:25:18.250Z,78.41
2023-05-15T12:27:51.107Z,78.51
2023-05-15T12:30:24.422Z,79.46
2023-05-15T12:33:00.239Z,78.60
2023-05-15T12:35:34.600Z,78.01
2023-05-15T12:38:07.418Z,77.94
2023-05-15T12:40:40.264Z,78.41
2023-05-15T12:43:14.254Z,79.32
2023-05-15T12:45:47.146Z,79.94
2023-05-15T12:48:21.770Z,79.70
2023-05-15T12:50:54.720Z,80.23
2023-05-15T12:53:27.394Z,79.98
2023-05-15T12:56:00.144Z,79.22
2023-05-15T12:58:32.864Z,79.22
2023-05-15T13:01:05.621Z,79.76
2023-05-15T13:03:40.376Z,80.41
2023-05-15T13:06:13.188Z,80.51
2023-05-15T13:08:47.738Z,79.52
2023-05-15T13:11:20.924Z,79.35
2023-05-15T13:13:55.133Z,78.50
2023-05-15T13:16:29.974Z,79.65
2023-05-15T13:19:04.556Z,79.43
2023-05-15T13:21:37.483Z,77.83
2023-05-15T13:24:10.807Z,74.50
2023-05-15T13:26:43.905Z,67.44
2023-05-15T13:29:16.564Z,60.57
2023-05-15T13:31:49.327Z,68.74
2023-05-15T13:34:23.670Z,64.21
2023-05-15T13:36:56.619Z,64.13
2023-05-15T13:39:29.474Z,63.35
2023-05-15T13:42:02.310Z,61.88
2023-05-15T13:44:35.895Z,66.17
2023-05-15T13:47:08.767Z,66.19
2023-05-15T13:49:43.139Z,66.00
2023-05-15T13:52:16.801Z,68.39
2023-05-15T13:54:49.633Z,68.66
2023-05-15T13:57:22.766Z,69.95
2023-05-15T13:59:55.678Z,70.62
2023-05-15T14:02:29.569Z,71.53
2023-05-15T14:05:04.811Z,72.44
2023-05-15T14:07:37.508Z,73.88
2023-05-15T14:10:11.256Z,74.82
2023-05-15T14:12:44.464Z,75.98
2023-05-15T14:15:18.134Z,77.17
2023-05-15T14:17:50.974Z,78.30
2023-05-15T14:20:25.504Z,79.41
2023-05-15T14:22:59.633Z,80.01
2023-05-15T14:25:32.399Z,80.62
2023-05-15T14:28:05.215Z,81.43
2023-05-15T14:30:38.468Z,82.22
2023-05-15T14:33:11.336Z,83.01
2023-05-15T14:35:46.324Z,83.39
2023-05-15T14:38:19.304Z,84.05
2023-05-15T14:40:52.424Z,84.58
2023-05-15T14:43:26.277Z,85.16
2023-05-15T14:45:59.459Z,84.95
2023-05-15T14:48:34.031Z,84.06
2023-05-15T14:51:08.802Z,83.40
2023-05-15T14:53:41.837Z,82.98
2023-05-15T14:56:14.930Z,82.49
2023-05-15T14:58:49.015Z,82.36
2023-05-15T15:01:21.905Z,82.43
2023-05-15T15:03:54.857Z,82.75
2023-05-15T15:06:29.791Z,83.16
2023-05-15T15:09:02.838Z,83.23
2023-05-15T15:11:36.831Z,83.59
2023-05-15T15:14:09.627Z,83.57
2023-05-15T15:16:44.782Z,83.46
2023-05-15T15:19:19.848Z,83.87
2023-05-15T15:21:54.405Z,84.07
2023-05-15T15:24:28.696Z,84.16
2023-05-15T15:27:01.374Z,84.32
2023-05-15T15:29:34.327Z,84.39
2023-05-15T15:32:07.594Z,84.30
2023-05-15T15:34:40.827Z,84.37
2023-05-15T15:37:15.278Z,84.51
2023-05-15T15:39:49.163Z,84.53
2023-05-15T15:42:23.101Z,84.41
2023-05-15T15:44:56.507Z,84.12
2023-05-15T15:47:32.458Z,83.73
2023-05-15T15:50:05.733Z,83.41
2023-05-15T15:52:39.978Z,83.12
2023-05-15T15:55:12.766Z,82.49
2023-05-15T15:57:46.178Z,82.03
2023-05-15T16:00:19.759Z,81.85
2023-05-15T16:02:53.026Z,81.83
2023-05-15T16:05:25.957Z,82.15
2023-05-15T16:08:00.295Z,82.47
2023-05-15T16:10:33.279Z,82.63
2023-05-15T16:13:06.328Z,82.67
2023-05-15T16:15:39.522Z,82.44
2023-05-15T16:18:12.351Z,82.07
2023-05-15T16:20:45.172Z,81.77
2023-05-15T16:23:21.609Z,81.48
2023-05-15T16:25:54.485Z,81.26
2023-05-15T16:28:27.285Z,81.24
2023-05-15T16:31:00.216Z,81.18
2023-05-15T16:33:33.337Z,81.59
2023-05-15T16:36:06.922Z,81.33
2023-05-15T16:38:41.177Z,81.41
2023-05-15T16:41:14.165Z,81.39
2023-05-15T16:43:46.832Z,81.60
2023-05-15T16:46:19.810Z,81.89
2023-05-15T16:48:52.728Z,82.09
2023-05-15T16:51:25.494Z,82.35
2023-05-15T16:53:59.764Z,82.64
2023-05-15T16:56:32.778Z,83.11
2023-05-15T16:59:05.726Z,83.63
2023-05-15T17:01:38.478Z,83.80
2023-05-15T17:04:11.629Z,83.90
2023-05-15T17:06:44.572Z,83.95
2023-05-15T17:09:18.973Z,83.83
2023-05-15T17:11:51.888Z,83.59
2023-05-15T17:14:24.944Z,83.36
2023-05-15T17:16:58.337Z,83.23
2023-05-15T17:19:31.444Z,82.85
2023-05-15T17:22:04.547Z,82.65
2023-05-15T17:24:49.876Z,82.34
2023-05-15T17:27:23.715Z,82.03
2023-05-15T17:29:56.752Z,82.01
2023-05-15T17:32:30.333Z,81.85
2023-05-15T17:35:05.831Z,81.61
2023-05-15T17:37:39.070Z,81.43
2023-05-15T17:40:14.172Z,81.39
2023-05-15T17:42:47.025Z,81.38
2023-05-15T17:45:20.404Z,81.18
2023-05-15T17:47:53.544Z,81.30
2023-05-15T17:50:26.632Z,81.39
2023-05-15T17:52:59.890Z,81.10
2023-05-15T17:55:34.784Z,81.15
2023-05-15T17:58:07.874Z,81.00
2023-05-15T18:00:40.774Z,81.12
2023-05-15T18:03:14.083Z,81.21
2023-05-15T18:05:47.499Z,81.17
2023-05-15T18:08:20.497Z,81.03
2023-05-15T18:10:54.572Z,80.84
2023-05-15T18:13:27.481Z,81.01
2023-05-15T18:16:00.337Z,80.79
2023-05-15T18:18:33.268Z,80.83
2023-05-15T18:21:06.554Z,80.69
2023-05-15T18:23:39.278Z,80.85
2023-05-15T18:26:13.386Z,80.84
2023-05-15T18:28:46.190Z,80.93
2023-05-15T18:31:19.269Z,80.63
2023-05-15T18:33:52.422Z,81.20
2023-05-15T18:36:25.777Z,80.94
2023-05-15T18:38:58.538Z,81.18
2023-05-15T18:41:32.679Z,81.06
2023-05-15T18:44:05.916Z,81.06
2023-05-15T18:46:39.034Z,80.88
2023-05-15T18:49:11.849Z,81.03
2023-05-15T18:51:44.757Z,81.04
2023-05-15T18:54:17.781Z,81.16
2023-05-15T18:56:51.905Z,81.19
2023-05-15T18:59:24.870Z,80.94
2023-05-15T19:01:57.742Z,81.02
2023-05-15T19:04:30.577Z,80.70
2023-05-15T19:07:03.341Z,81.10
2023-05-15T19:09:36.303Z,80.98
2023-05-15T19:12:10.513Z,80.81
2023-05-15T19:14:43.435Z,81.07
2023-05-15T19:17:16.192Z,81.18
2023-05-15T19:19:49.334Z,81.29
2023-05-15T19:22:22.102Z,81.06
2023-05-15T19:24:55.291Z,81.33
2023-05-15T19:27:29.399Z,81.22
2023-05-15T19:30:04.310Z,81.08
2023-05-15T19:32:37.274Z,81.11
2023-05-15T19:35:10.636Z,80.97
2023-05-15T19:37:43.775Z,81.09
2023-05-15T19:40:17.150Z,81.50
2023-05-15T19:42:51.309Z,81.03
2023-05-15T19:45:24.261Z,81.46
2023-05-15T19:47:57.429Z,81.37
2023-05-15T19:50:32.639Z,81.30
2023-05-15T19:53:06.216Z,81.22
2023-05-15T19:55:39.164Z,81.45
2023-05-15T19:58:13.320Z,81.52
2023-05-15T20:00:46.290Z,81.40
2023-05-15T20:03:19.674Z,81.13
2023-05-15T20:05:53.390Z,81.14
2023-05-15T20:08:26.587Z,81.20
2023-05-15T20:10:59.281Z,81.29
2023-05-15T20:13:34.418Z,81.10
2023-05-15T20:16:10.922Z,81.31
2023-05-15T20:18:45.333Z,81.45
2023-05-15T20:21:18.466Z,81.44
2023-05-15T20:23:51.282Z,81.34
2023-05-15T20:26:24.416Z,81.48
2023-05-15T20:28:58.522Z,81.40
2023-05-15T20:31:31.403Z,81.62
2023-05-15T20:34:06.055Z,81.72
2023-05-15T20:36:40.041Z,81.74
2023-05-15T20:39:14.243Z,81.47
2023-05-15T20:41:47.238Z,81.42
2023-05-15T20:44:21.384Z,81.43
2023-05-15T20:46:54.206Z,81.78
2023-05-15T20:49:26.971Z,81.45
2023-05-15T20:51:59.717Z,81.35
2023-05-15T20:54:32.809Z,81.62
2023-05-15T20:57:06.772Z,81.52
2023-05-15T20:59:41.253Z,81.69
2023-05-15T21:02:14.107Z,81.45
2023-05-15T21:04:47.112Z,81.62
2023-05-15T21:07:20.573Z,81.28
2023-05-15T21:09:53.524Z,81.11
2023-05-15T21:12:26.663Z,81.12
2023-05-15T21:15:00.783Z,81.22
2023-05-15T21:17:33.690Z,81.17
2023-05-15T21:20:07.217Z,80.78
2023-05-15T21:22:40.385Z,81.04
2023-05-15T21:25:13.158Z,80.77
2023-05-15T21:27:46.006Z,80.62
2023-05-15T21:30:20.710Z,80.20
2023-05-15T21:32:53.622Z,80.26
2023-05-15T21:35:29.068Z,80.13
2023-05-15T21:38:02.191Z,79.84
2023-05-15T21:40:34.896Z,79.49
2023-05-15T21:43:07.720Z,79.41
2023-05-15T21:45:42.119Z,79.24
2023-05-15T21:48:15.244Z,78.87
2023-05-15T21:50:48.220Z,78.95
2023-05-15T21:53:20.872Z,78.87
2023-05-15T21:55:55.773Z,79.03
2023-05-15T21:58:28.822Z,79.05
2023-05-15T22:01:03.062Z,79.27
2023-05-15T22:03:35.967Z,79.17
2023-05-15T22:06:09.203Z,79.16
2023-05-15T22:08:42.629Z,79.24
2023-05-15T22:11:15.668Z,79.18
2023-05-15T22:13:48.458Z,79.22
2023-05-15T22:16:23.027Z,78.92
2023-05-15T22:18:56.092Z,78.98
2023-05-15T22:21:28.808Z,78.87
2023-05-15T22:24:04.234Z,78.87
2023-05-15T22:26:36.931Z,78.89
2023-05-15T22:29:09.752Z,78.91
2023-05-15T22:31:44.158Z,79.03
2023-05-15T22:34:17.010Z,78.81
2023-05-15T22:36:50.942Z,78.92
2023-05-15T22:39:24.227Z,78.82
2023-05-15T22:41:57.030Z,78.85
2023-05-15T22:44:29.864Z,78.89
2023-05-15T22:47:04.071Z,79.25
2023-05-15T22:49:37.896Z,79.16
2023-05-15T22:52:12.954Z,79.20
2023-05-15T22:54:47.011Z,79.39
2023-05-15T22:57:19.955Z,79.59
2023-05-15T22:59:52.815Z,79.98
2023-05-15T23:02:27.128Z,79.71
2023-05-15T23:05:00.334Z,80.14
2023-05-15T23:07:33.152Z,80.24
2023-05-15T23:10:07.014Z,80.82
2023-05-15T23:12:40.271Z,81.09
2023-05-15T23:15:13.524Z,81.43
2023-05-15T23:17:47.883Z,81.45
2023-05-15T23:20:20.684Z,81.62
2023-05-15T23:22:53.742Z,81.81
2023-05-15T23:25:27.453Z,81.93
2023-05-15T23:28:00.512Z,81.88
2023-05-15T23:30:33.936Z,82.01
2023-05-15T23:33:08.341Z,82.39
2023-05-15T23:35:41.307Z,82.37
2023-05-15T23:38:14.135Z,82.29
2023-05-15T23:40:46.941Z,82.41
2023-05-15T23:43:19.798Z,82.31
2023-05-15T23:45:52.938Z,82.30
2023-05-15T23:48:28.079Z,82.35
2023-05-15T23:51:01.064Z,82.21
2023-05-15T23:53:33.767Z,82.24
2023-05-15T23:56:08.873Z,82.25
2023-05-15T23:58:41.763Z,81.99
